sensor_id;sensor_type;location;lat;lon;timestamp;P1;durP1;ratioP1;P2;durP2;ratioP2
33453;SDS011;39400;49.744;7.012;2023-03-01T00:00:04;11.05;;;6.10;;
33453;SDS011;39400;49.744;7.012;2023-03-01T00:02:36;10.85;;;6.53;;
33453;SDS011;39400;49.744;7.012;2023-03-01T00:05:02;9.45;;;5.10;;
33453;SDS011;39400;49.744;7.012;2023-03-01T00:07:27;14.07;;;7.05;;
33453;SDS011;39400;49.744;7.012;2023-03-01T00:09:53;10.57;;;6.28;;
33453;SDS011;39400;49.744;7.012;2023-03-01T00:12:18;10.75;;;6.45;;
33453;SDS011;39400;49.744;7.012;2023-03-01T00:14:44;14.55;;;7.40;;
33453;SDS011;39400;49.744;7.012;2023-03-01T00:17:09;11.57;;;6.25;;
33453;SDS011;39400;49.744;7.012;2023-03-01T00:19:34;12.63;;;6.90;;
33453;SDS011;39400;49.744;7.012;2023-03-01T00:22:00;9.68;;;6.03;;
33453;SDS011;39400;49.744;7.012;2023-03-01T00:24:25;13.27;;;6.88;;
33453;SDS011;39400;49.744;7.012;2023-03-01T00:26:52;13.13;;;6.82;;
33453;SDS011;39400;49.744;7.012;2023-03-01T00:29:19;11.23;;;6.15;;
33453;SDS011;39400;49.744;7.012;2023-03-01T00:31:44;11.20;;;7.05;;
33453;SDS011;39400;49.744;7.012;2023-03-01T00:34:09;14.32;;;6.80;;
33453;SDS011;39400;49.744;7.012;2023-03-01T00:36:36;12.45;;;6.93;;
33453;SDS011;39400;49.744;7.012;2023-03-01T00:39:02;12.70;;;7.40;;
33453;SDS011;39400;49.744;7.012;2023-03-01T00:41:29;13.15;;;6.72;;
33453;SDS011;39400;49.744;7.012;2023-03-01T00:43:55;10.73;;;6.35;;
33453;SDS011;39400;49.744;7.012;2023-03-01T00:46:22;13.23;;;6.60;;
33453;SDS011;39400;49.744;7.012;2023-03-01T00:48:49;13.43;;;6.38;;
33453;SDS011;39400;49.744;7.012;2023-03-01T00:51:16;11.77;;;6.65;;
33453;SDS011;39400;49.744;7.012;2023-03-01T00:53:50;17.58;;;6.85;;
33453;SDS011;39400;49.744;7.012;2023-03-01T00:56:19;13.75;;;6.78;;
33453;SDS011;39400;49.744;7.012;2023-03-01T00:58:45;16.73;;;7.85;;
33453;SDS011;39400;49.744;7.012;2023-03-01T01:01:13;12.23;;;6.30;;
33453;SDS011;39400;49.744;7.012;2023-03-01T01:03:48;15.40;;;7.63;;
33453;SDS011;39400;49.744;7.012;2023-03-01T01:06:20;13.07;;;7.13;;
33453;SDS011;39400;49.744;7.012;2023-03-01T01:08:47;11.73;;;6.80;;
33453;SDS011;39400;49.744;7.012;2023-03-01T01:11:13;14.50;;;7.55;;
33453;SDS011;39400;49.744;7.012;2023-03-01T01:13:39;14.10;;;7.30;;
33453;SDS011;39400;49.744;7.012;2023-03-01T01:16:06;12.15;;;7.70;;
33453;SDS011;39400;49.744;7.012;2023-03-01T01:18:32;13.55;;;6.63;;
33453;SDS011;39400;49.744;7.012;2023-03-01T01:20:57;13.82;;;7.35;;
33453;SDS011;39400;49.744;7.012;2023-03-01T01:23:22;12.00;;;6.78;;
33453;SDS011;39400;49.744;7.012;2023-03-01T01:25:48;13.70;;;7.63;;
33453;SDS011;39400;49.744;7.012;2023-03-01T01:28:13;15.10;;;7.32;;
33453;SDS011;39400;49.744;7.012;2023-03-01T01:30:39;14.55;;;8.75;;
33453;SDS011;39400;49.744;7.012;2023-03-01T01:33:04;12.52;;;7.07;;
33453;SDS011;39400;49.744;7.012;2023-03-01T01:35:29;13.85;;;7.00;;
33453;SDS011;39400;49.744;7.012;2023-03-01T01:37:55;15.15;;;8.23;;
33453;SDS011;39400;49.744;7.012;2023-03-01T01:40:20;14.63;;;7.10;;
33453;SDS011;39400;49.744;7.012;2023-03-01T01:42:45;16.73;;;8.77;;
33453;SDS011;39400;49.744;7.012;2023-03-01T01:48:04;13.02;;;7.22;;
33453;SDS011;39400;49.744;7.012;2023-03-01T01:50:32;13.00;;;7.68;;
33453;SDS011;39400;49.744;7.012;2023-03-01T01:53:00;15.57;;;8.05;;
33453;SDS011;39400;49.744;7.012;2023-03-01T01:55:26;16.05;;;8.73;;
33453;SDS011;39400;49.744;7.012;2023-03-01T01:57:53;14.85;;;7.63;;
33453;SDS011;39400;49.744;7.012;2023-03-01T02:00:25;13.18;;;7.10;;
33453;SDS011;39400;49.744;7.012;2023-03-01T02:02:54;15.55;;;7.93;;
33453;SDS011;39400;49.744;7.012;2023-03-01T02:08:11;12.65;;;7.22;;
33453;SDS011;39400;49.744;7.012;2023-03-01T02:10:38;18.08;;;8.70;;
33453;SDS011;39400;49.744;7.012;2023-03-01T02:13:05;15.00;;;7.88;;
33453;SDS011;39400;49.744;7.012;2023-03-01T02:15:32;13.02;;;7.53;;
33453;SDS011;39400;49.744;7.012;2023-03-01T02:17:59;14.05;;;7.43;;
33453;SDS011;39400;49.744;7.012;2023-03-01T02:20:33;18.73;;;8.45;;
33453;SDS011;39400;49.744;7.012;2023-03-01T02:23:04;13.43;;;7.70;;
33453;SDS011;39400;49.744;7.012;2023-03-01T02:30:39;19.10;;;9.82;;
33453;SDS011;39400;49.744;7.012;2023-03-01T02:33:05;16.50;;;8.75;;
33453;SDS011;39400;49.744;7.012;2023-03-01T02:35:31;17.02;;;9.43;;
33453;SDS011;39400;49.744;7.012;2023-03-01T02:38:01;15.55;;;8.88;;
33453;SDS011;39400;49.744;7.012;2023-03-01T02:40:28;19.45;;;10.68;;
33453;SDS011;39400;49.744;7.012;2023-03-01T02:42:57;16.73;;;9.35;;
33453;SDS011;39400;49.744;7.012;2023-03-01T02:45:24;15.13;;;8.35;;
33453;SDS011;39400;49.744;7.012;2023-03-01T02:47:55;19.38;;;9.98;;
33453;SDS011;39400;49.744;7.012;2023-03-01T02:55:23;18.55;;;10.10;;
33453;SDS011;39400;49.744;7.012;2023-03-01T02:57:49;16.88;;;9.43;;
33453;SDS011;39400;49.744;7.012;2023-03-01T03:00:17;17.80;;;9.90;;
33453;SDS011;39400;49.744;7.012;2023-03-01T03:02:47;13.85;;;8.45;;
33453;SDS011;39400;49.744;7.012;2023-03-01T03:05:18;17.27;;;9.40;;
33453;SDS011;39400;49.744;7.012;2023-03-01T03:07:45;17.98;;;10.07;;
33453;SDS011;39400;49.744;7.012;2023-03-01T03:10:22;16.13;;;8.38;;
33453;SDS011;39400;49.744;7.012;2023-03-01T03:12:57;21.88;;;10.27;;
33453;SDS011;39400;49.744;7.012;2023-03-01T03:15:27;16.80;;;10.48;;
33453;SDS011;39400;49.744;7.012;2023-03-01T03:17:54;18.45;;;9.68;;
33453;SDS011;39400;49.744;7.012;2023-03-01T03:20:22;17.75;;;10.35;;
33453;SDS011;39400;49.744;7.012;2023-03-01T03:22:51;16.30;;;10.68;;
33453;SDS011;39400;49.744;7.012;2023-03-01T03:25:18;18.30;;;11.25;;
33453;SDS011;39400;49.744;7.012;2023-03-01T03:27:45;19.00;;;9.63;;
33453;SDS011;39400;49.744;7.012;2023-03-01T03:30:13;18.60;;;11.55;;
33453;SDS011;39400;49.744;7.012;2023-03-01T03:32:41;23.25;;;11.00;;
33453;SDS011;39400;49.744;7.012;2023-03-01T03:35:08;19.17;;;9.93;;
33453;SDS011;39400;49.744;7.012;2023-03-01T03:37:38;20.45;;;10.18;;
33453;SDS011;39400;49.744;7.012;2023-03-01T03:40:04;16.48;;;9.82;;
33453;SDS011;39400;49.744;7.012;2023-03-01T03:42:30;19.55;;;10.57;;
33453;SDS011;39400;49.744;7.012;2023-03-01T03:44:55;16.67;;;10.43;;
33453;SDS011;39400;49.744;7.012;2023-03-01T03:47:21;19.10;;;10.80;;
33453;SDS011;39400;49.744;7.012;2023-03-01T03:49:46;19.02;;;10.27;;
33453;SDS011;39400;49.744;7.012;2023-03-01T03:52:11;19.42;;;10.45;;
33453;SDS011;39400;49.744;7.012;2023-03-01T03:54:37;18.95;;;9.45;;
33453;SDS011;39400;49.744;7.012;2023-03-01T03:57:02;21.80;;;10.55;;
33453;SDS011;39400;49.744;7.012;2023-03-01T03:59:27;15.85;;;9.43;;
33453;SDS011;39400;49.744;7.012;2023-03-01T04:01:53;18.35;;;9.77;;
33453;SDS011;39400;49.744;7.012;2023-03-01T04:04:18;16.73;;;9.25;;
33453;SDS011;39400;49.744;7.012;2023-03-01T04:06:43;13.13;;;8.38;;
33453;SDS011;39400;49.744;7.012;2023-03-01T04:09:09;17.35;;;9.10;;
33453;SDS011;39400;49.744;7.012;2023-03-01T04:11:34;15.18;;;8.65;;
33453;SDS011;39400;49.744;7.012;2023-03-01T04:13:59;16.92;;;9.30;;
33453;SDS011;39400;49.744;7.012;2023-03-01T04:16:25;22.23;;;10.23;;
33453;SDS011;39400;49.744;7.012;2023-03-01T04:18:50;19.35;;;10.38;;
33453;SDS011;39400;49.744;7.012;2023-03-01T04:21:16;15.00;;;9.40;;
33453;SDS011;39400;49.744;7.012;2023-03-01T04:23:41;18.58;;;9.80;;
33453;SDS011;39400;49.744;7.012;2023-03-01T04:26:07;18.00;;;9.25;;
33453;SDS011;39400;49.744;7.012;2023-03-01T04:28:33;18.85;;;10.27;;
33453;SDS011;39400;49.744;7.012;2023-03-01T04:31:02;20.20;;;9.90;;
33453;SDS011;39400;49.744;7.012;2023-03-01T04:33:29;24.75;;;13.10;;
33453;SDS011;39400;49.744;7.012;2023-03-01T04:35:55;18.23;;;9.93;;
33453;SDS011;39400;49.744;7.012;2023-03-01T04:38:20;17.52;;;9.25;;
33453;SDS011;39400;49.744;7.012;2023-03-01T04:40:45;20.00;;;9.85;;
33453;SDS011;39400;49.744;7.012;2023-03-01T04:43:11;19.02;;;10.32;;
33453;SDS011;39400;49.744;7.012;2023-03-01T04:45:37;17.55;;;10.20;;
33453;SDS011;39400;49.744;7.012;2023-03-01T04:48:02;17.70;;;10.30;;
33453;SDS011;39400;49.744;7.012;2023-03-01T04:50:28;16.88;;;9.57;;
33453;SDS011;39400;49.744;7.012;2023-03-01T04:52:54;18.42;;;9.52;;
33453;SDS011;39400;49.744;7.012;2023-03-01T04:55:20;18.15;;;9.98;;
33453;SDS011;39400;49.744;7.012;2023-03-01T04:57:45;17.00;;;9.75;;
33453;SDS011;39400;49.744;7.012;2023-03-01T05:00:12;20.65;;;9.93;;
33453;SDS011;39400;49.744;7.012;2023-03-01T05:02:38;17.70;;;9.88;;
33453;SDS011;39400;49.744;7.012;2023-03-01T05:05:03;16.15;;;10.07;;
33453;SDS011;39400;49.744;7.012;2023-03-01T05:07:29;19.55;;;11.93;;
33453;SDS011;39400;49.744;7.012;2023-03-01T05:09:54;20.15;;;11.35;;
33453;SDS011;39400;49.744;7.012;2023-03-01T05:12:20;21.38;;;10.88;;
33453;SDS011;39400;49.744;7.012;2023-03-01T05:14:45;17.63;;;11.02;;
33453;SDS011;39400;49.744;7.012;2023-03-01T05:17:10;20.38;;;10.95;;
33453;SDS011;39400;49.744;7.012;2023-03-01T05:19:35;22.80;;;13.00;;
33453;SDS011;39400;49.744;7.012;2023-03-01T05:22:01;25.05;;;12.38;;
33453;SDS011;39400;49.744;7.012;2023-03-01T05:24:27;23.65;;;14.48;;
33453;SDS011;39400;49.744;7.012;2023-03-01T05:26:53;21.15;;;12.77;;
33453;SDS011;39400;49.744;7.012;2023-03-01T05:29:19;19.10;;;11.07;;
33453;SDS011;39400;49.744;7.012;2023-03-01T05:31:45;17.10;;;10.07;;
33453;SDS011;39400;49.744;7.012;2023-03-01T05:34:10;19.17;;;11.00;;
33453;SDS011;39400;49.744;7.012;2023-03-01T05:36:35;25.50;;;11.65;;
33453;SDS011;39400;49.744;7.012;2023-03-01T05:39:01;22.85;;;11.55;;
33453;SDS011;39400;49.744;7.012;2023-03-01T05:41:26;20.48;;;11.88;;
33453;SDS011;39400;49.744;7.012;2023-03-01T05:43:51;21.63;;;10.75;;
33453;SDS011;39400;49.744;7.012;2023-03-01T05:46:17;20.00;;;11.93;;
33453;SDS011;39400;49.744;7.012;2023-03-01T05:48:42;25.10;;;12.52;;
33453;SDS011;39400;49.744;7.012;2023-03-01T05:51:07;19.58;;;11.95;;
33453;SDS011;39400;49.744;7.012;2023-03-01T05:53:33;27.98;;;13.85;;
33453;SDS011;39400;49.744;7.012;2023-03-01T05:55:58;24.75;;;12.95;;
33453;SDS011;39400;49.744;7.012;2023-03-01T05:58:23;23.05;;;12.95;;
33453;SDS011;39400;49.744;7.012;2023-03-01T06:00:49;25.73;;;13.60;;
33453;SDS011;39400;49.744;7.012;2023-03-01T06:03:15;27.52;;;13.23;;
33453;SDS011;39400;49.744;7.012;2023-03-01T06:05:41;22.25;;;13.25;;
33453;SDS011;39400;49.744;7.012;2023-03-01T06:08:08;26.33;;;14.73;;
33453;SDS011;39400;49.744;7.012;2023-03-01T06:10:34;24.77;;;12.77;;
33453;SDS011;39400;49.744;7.012;2023-03-01T06:13:00;21.83;;;12.35;;
33453;SDS011;39400;49.744;7.012;2023-03-01T06:15:25;21.98;;;12.68;;
33453;SDS011;39400;49.744;7.012;2023-03-01T06:17:52;23.88;;;13.13;;
33453;SDS011;39400;49.744;7.012;2023-03-01T06:20:20;23.35;;;12.38;;
33453;SDS011;39400;49.744;7.012;2023-03-01T06:22:47;22.02;;;12.93;;
33453;SDS011;39400;49.744;7.012;2023-03-01T06:25:14;29.48;;;16.55;;
33453;SDS011;39400;49.744;7.012;2023-03-01T06:27:42;31.67;;;18.27;;
33453;SDS011;39400;49.744;7.012;2023-03-01T06:30:08;31.50;;;17.10;;
33453;SDS011;39400;49.744;7.012;2023-03-01T06:32:35;37.83;;;18.88;;
33453;SDS011;39400;49.744;7.012;2023-03-01T06:35:00;34.03;;;18.67;;
33453;SDS011;39400;49.744;7.012;2023-03-01T06:37:26;30.02;;;17.00;;
33453;SDS011;39400;49.744;7.012;2023-03-01T06:39:51;35.55;;;18.52;;
33453;SDS011;39400;49.744;7.012;2023-03-01T06:42:16;32.42;;;17.20;;
33453;SDS011;39400;49.744;7.012;2023-03-01T06:44:42;28.67;;;15.88;;
33453;SDS011;39400;49.744;7.012;2023-03-01T06:47:08;26.58;;;13.90;;
33453;SDS011;39400;49.744;7.012;2023-03-01T06:49:34;29.80;;;15.93;;
33453;SDS011;39400;49.744;7.012;2023-03-01T06:51:59;26.75;;;15.07;;
33453;SDS011;39400;49.744;7.012;2023-03-01T06:54:24;35.05;;;17.27;;
33453;SDS011;39400;49.744;7.012;2023-03-01T06:56:50;26.95;;;14.85;;
33453;SDS011;39400;49.744;7.012;2023-03-01T06:59:15;26.35;;;13.98;;
33453;SDS011;39400;49.744;7.012;2023-03-01T07:01:41;26.83;;;14.77;;
33453;SDS011;39400;49.744;7.012;2023-03-01T07:04:07;30.70;;;16.05;;
33453;SDS011;39400;49.744;7.012;2023-03-01T07:06:32;29.50;;;14.10;;
33453;SDS011;39400;49.744;7.012;2023-03-01T07:08:58;27.98;;;15.10;;
33453;SDS011;39400;49.744;7.012;2023-03-01T07:11:23;30.08;;;15.65;;
33453;SDS011;39400;49.744;7.012;2023-03-01T07:13:48;31.77;;;17.10;;
33453;SDS011;39400;49.744;7.012;2023-03-01T07:16:14;30.75;;;17.63;;
33453;SDS011;39400;49.744;7.012;2023-03-01T07:18:39;33.90;;;16.65;;
33453;SDS011;39400;49.744;7.012;2023-03-01T07:21:09;28.00;;;16.45;;
33453;SDS011;39400;49.744;7.012;2023-03-01T07:23:37;29.13;;;16.10;;
33453;SDS011;39400;49.744;7.012;2023-03-01T07:26:02;30.58;;;15.45;;
33453;SDS011;39400;49.744;7.012;2023-03-01T07:28:28;30.90;;;16.95;;
33453;SDS011;39400;49.744;7.012;2023-03-01T07:30:53;30.02;;;16.17;;
33453;SDS011;39400;49.744;7.012;2023-03-01T07:33:19;29.23;;;16.48;;
33453;SDS011;39400;49.744;7.012;2023-03-01T07:35:45;32.33;;;17.23;;
33453;SDS011;39400;49.744;7.012;2023-03-01T07:38:10;26.10;;;13.93;;
33453;SDS011;39400;49.744;7.012;2023-03-01T07:40:36;26.58;;;14.13;;
33453;SDS011;39400;49.744;7.012;2023-03-01T07:43:01;26.65;;;15.52;;
33453;SDS011;39400;49.744;7.012;2023-03-01T07:45:27;26.65;;;13.68;;
33453;SDS011;39400;49.744;7.012;2023-03-01T07:47:54;25.60;;;14.85;;
33453;SDS011;39400;49.744;7.012;2023-03-01T07:50:20;30.73;;;14.65;;
33453;SDS011;39400;49.744;7.012;2023-03-01T07:52:47;29.48;;;16.85;;
33453;SDS011;39400;49.744;7.012;2023-03-01T07:55:13;26.38;;;13.95;;
33453;SDS011;39400;49.744;7.012;2023-03-01T07:57:39;29.83;;;15.60;;
33453;SDS011;39400;49.744;7.012;2023-03-01T08:00:05;26.90;;;15.00;;
33453;SDS011;39400;49.744;7.012;2023-03-01T08:02:37;31.35;;;17.55;;
33453;SDS011;39400;49.744;7.012;2023-03-01T08:05:02;29.33;;;15.77;;
33453;SDS011;39400;49.744;7.012;2023-03-01T08:07:28;31.92;;;15.48;;
33453;SDS011;39400;49.744;7.012;2023-03-01T08:09:53;20.52;;;12.25;;
33453;SDS011;39400;49.744;7.012;2023-03-01T08:12:19;25.52;;;14.60;;
33453;SDS011;39400;49.744;7.012;2023-03-01T08:14:44;29.33;;;14.43;;
33453;SDS011;39400;49.744;7.012;2023-03-01T08:17:09;25.15;;;13.13;;
33453;SDS011;39400;49.744;7.012;2023-03-01T08:19:35;23.48;;;12.77;;
33453;SDS011;39400;49.744;7.012;2023-03-01T08:22:03;26.25;;;12.68;;
33453;SDS011;39400;49.744;7.012;2023-03-01T08:24:29;23.58;;;13.52;;
33453;SDS011;39400;49.744;7.012;2023-03-01T08:26:54;24.70;;;14.68;;
33453;SDS011;39400;49.744;7.012;2023-03-01T08:29:20;24.88;;;12.85;;
33453;SDS011;39400;49.744;7.012;2023-03-01T08:31:46;29.95;;;15.77;;
33453;SDS011;39400;49.744;7.012;2023-03-01T08:34:13;57.75;;;28.83;;
33453;SDS011;39400;49.744;7.012;2023-03-01T08:36:42;26.73;;;13.77;;
33453;SDS011;39400;49.744;7.012;2023-03-01T08:39:10;26.08;;;15.80;;
33453;SDS011;39400;49.744;7.012;2023-03-01T08:41:37;21.70;;;12.50;;
33453;SDS011;39400;49.744;7.012;2023-03-01T08:44:02;24.80;;;15.35;;
33453;SDS011;39400;49.744;7.012;2023-03-01T08:46:29;25.73;;;14.90;;
33453;SDS011;39400;49.744;7.012;2023-03-01T08:48:59;26.38;;;14.13;;
33453;SDS011;39400;49.744;7.012;2023-03-01T08:51:25;23.75;;;12.93;;
33453;SDS011;39400;49.744;7.012;2023-03-01T08:53:51;31.25;;;14.88;;
33453;SDS011;39400;49.744;7.012;2023-03-01T08:56:17;25.10;;;13.90;;
33453;SDS011;39400;49.744;7.012;2023-03-01T08:58:43;26.52;;;15.05;;
33453;SDS011;39400;49.744;7.012;2023-03-01T09:01:10;26.58;;;14.15;;
33453;SDS011;39400;49.744;7.012;2023-03-01T09:03:36;26.45;;;14.13;;
33453;SDS011;39400;49.744;7.012;2023-03-01T09:06:03;22.55;;;13.25;;
33453;SDS011;39400;49.744;7.012;2023-03-01T09:08:30;25.83;;;13.90;;
33453;SDS011;39400;49.744;7.012;2023-03-01T09:11:00;25.65;;;15.23;;
33453;SDS011;39400;49.744;7.012;2023-03-01T09:13:27;26.35;;;13.88;;
33453;SDS011;39400;49.744;7.012;2023-03-01T09:15:53;21.25;;;12.90;;
33453;SDS011;39400;49.744;7.012;2023-03-01T09:18:24;23.95;;;14.52;;
33453;SDS011;39400;49.744;7.012;2023-03-01T09:20:49;22.05;;;13.20;;
33453;SDS011;39400;49.744;7.012;2023-03-01T09:23:15;24.95;;;14.73;;
33453;SDS011;39400;49.744;7.012;2023-03-01T09:25:40;22.95;;;13.77;;
33453;SDS011;39400;49.744;7.012;2023-03-01T09:28:05;23.92;;;13.57;;
33453;SDS011;39400;49.744;7.012;2023-03-01T09:30:31;22.05;;;13.93;;
33453;SDS011;39400;49.744;7.012;2023-03-01T09:32:56;24.17;;;14.15;;
33453;SDS011;39400;49.744;7.012;2023-03-01T09:35:22;25.17;;;16.08;;
33453;SDS011;39400;49.744;7.012;2023-03-01T09:37:47;25.55;;;15.05;;
33453;SDS011;39400;49.744;7.012;2023-03-01T09:40:14;27.80;;;14.38;;
33453;SDS011;39400;49.744;7.012;2023-03-01T09:43:02;24.40;;;13.60;;
33453;SDS011;39400;49.744;7.012;2023-03-01T09:45:50;25.08;;;14.20;;
33453;SDS011;39400;49.744;7.012;2023-03-01T09:48:20;25.30;;;14.18;;
33453;SDS011;39400;49.744;7.012;2023-03-01T09:50:49;21.25;;;13.00;;
33453;SDS011;39400;49.744;7.012;2023-03-01T09:53:20;25.13;;;14.23;;
33453;SDS011;39400;49.744;7.012;2023-03-01T09:56:39;25.13;;;14.02;;
33453;SDS011;39400;49.744;7.012;2023-03-01T10:04:50;22.40;;;13.60;;
33453;SDS011;39400;49.744;7.012;2023-03-01T10:09:52;27.58;;;16.13;;
33453;SDS011;39400;49.744;7.012;2023-03-01T10:12:19;21.58;;;13.40;;
33453;SDS011;39400;49.744;7.012;2023-03-01T10:17:43;23.90;;;13.32;;
33453;SDS011;39400;49.744;7.012;2023-03-01T10:20:48;25.67;;;15.27;;
33453;SDS011;39400;49.744;7.012;2023-03-01T10:23:18;23.73;;;13.65;;
33453;SDS011;39400;49.744;7.012;2023-03-01T10:28:31;28.10;;;14.93;;
33453;SDS011;39400;49.744;7.012;2023-03-01T10:31:04;24.75;;;14.18;;
33453;SDS011;39400;49.744;7.012;2023-03-01T10:33:35;24.73;;;13.55;;
33453;SDS011;39400;49.744;7.012;2023-03-01T10:36:03;21.23;;;12.95;;
33453;SDS011;39400;49.744;7.012;2023-03-01T10:38:30;27.02;;;13.60;;
33453;SDS011;39400;49.744;7.012;2023-03-01T10:41:11;24.38;;;13.45;;
33453;SDS011;39400;49.744;7.012;2023-03-01T10:43:44;25.95;;;14.57;;
33453;SDS011;39400;49.744;7.012;2023-03-01T10:49:06;24.08;;;14.82;;
33453;SDS011;39400;49.744;7.012;2023-03-01T10:51:32;31.13;;;17.33;;
33453;SDS011;39400;49.744;7.012;2023-03-01T10:53:57;27.00;;;14.75;;
33453;SDS011;39400;49.744;7.012;2023-03-01T10:56:23;29.63;;;16.38;;
33453;SDS011;39400;49.744;7.012;2023-03-01T10:59:02;26.48;;;15.55;;
33453;SDS011;39400;49.744;7.012;2023-03-01T11:01:29;23.70;;;13.20;;
33453;SDS011;39400;49.744;7.012;2023-03-01T11:06:31;23.25;;;14.15;;
33453;SDS011;39400;49.744;7.012;2023-03-01T11:08:57;24.55;;;14.85;;
33453;SDS011;39400;49.744;7.012;2023-03-01T11:11:39;25.45;;;13.43;;
33453;SDS011;39400;49.744;7.012;2023-03-01T11:14:13;22.65;;;12.98;;
33453;SDS011;39400;49.744;7.012;2023-03-01T11:16:42;22.17;;;13.15;;
33453;SDS011;39400;49.744;7.012;2023-03-01T11:21:39;25.77;;;14.15;;
33453;SDS011;39400;49.744;7.012;2023-03-01T11:24:12;25.20;;;13.07;;
33453;SDS011;39400;49.744;7.012;2023-03-01T11:26:41;19.48;;;12.27;;
33453;SDS011;39400;49.744;7.012;2023-03-01T11:29:25;22.90;;;13.13;;
33453;SDS011;39400;49.744;7.012;2023-03-01T11:31:56;22.85;;;13.05;;
33453;SDS011;39400;49.744;7.012;2023-03-01T11:34:37;22.42;;;13.20;;
33453;SDS011;39400;49.744;7.012;2023-03-01T11:37:26;21.63;;;13.57;;
33453;SDS011;39400;49.744;7.012;2023-03-01T11:40:13;20.88;;;12.43;;
33453;SDS011;39400;49.744;7.012;2023-03-01T11:43:04;21.60;;;11.43;;
33453;SDS011;39400;49.744;7.012;2023-03-01T11:48:35;20.80;;;14.02;;
33453;SDS011;39400;49.744;7.012;2023-03-01T11:51:33;20.38;;;12.90;;
33453;SDS011;39400;49.744;7.012;2023-03-01T11:56:55;20.45;;;12.50;;
33453;SDS011;39400;49.744;7.012;2023-03-01T12:07:24;23.67;;;11.95;;
33453;SDS011;39400;49.744;7.012;2023-03-01T12:15:47;17.30;;;11.13;;
33453;SDS011;39400;49.744;7.012;2023-03-01T12:24:15;21.15;;;11.45;;
33453;SDS011;39400;49.744;7.012;2023-03-01T12:27:07;19.60;;;11.82;;
33453;SDS011;39400;49.744;7.012;2023-03-01T12:29:42;23.90;;;12.50;;
33453;SDS011;39400;49.744;7.012;2023-03-01T12:40:46;23.55;;;13.10;;
33453;SDS011;39400;49.744;7.012;2023-03-01T12:48:48;18.02;;;11.35;;
33453;SDS011;39400;49.744;7.012;2023-03-01T12:51:24;18.35;;;12.32;;
33453;SDS011;39400;49.744;7.012;2023-03-01T12:53:54;18.85;;;11.68;;
33453;SDS011;39400;49.744;7.012;2023-03-01T12:56:27;21.73;;;12.20;;
33453;SDS011;39400;49.744;7.012;2023-03-01T13:01:40;20.17;;;12.57;;
33453;SDS011;39400;49.744;7.012;2023-03-01T13:11:49;18.13;;;11.30;;
33453;SDS011;39400;49.744;7.012;2023-03-01T13:16:46;19.58;;;13.27;;
33453;SDS011;39400;49.744;7.012;2023-03-01T13:19:13;18.40;;;12.05;;
33453;SDS011;39400;49.744;7.012;2023-03-01T13:21:41;22.58;;;13.32;;
33453;SDS011;39400;49.744;7.012;2023-03-01T13:24:26;24.80;;;15.20;;
33453;SDS011;39400;49.744;7.012;2023-03-01T13:29:45;21.08;;;13.25;;
33453;SDS011;39400;49.744;7.012;2023-03-01T13:34:45;24.73;;;16.27;;
33453;SDS011;39400;49.744;7.012;2023-03-01T13:37:21;19.67;;;12.13;;
33453;SDS011;39400;49.744;7.012;2023-03-01T13:39:49;18.25;;;12.07;;
33453;SDS011;39400;49.744;7.012;2023-03-01T13:45:00;24.65;;;14.25;;
33453;SDS011;39400;49.744;7.012;2023-03-01T13:47:26;40.13;;;20.88;;
33453;SDS011;39400;49.744;7.012;2023-03-01T13:49:56;31.15;;;18.95;;
33453;SDS011;39400;49.744;7.012;2023-03-01T13:55:04;20.15;;;12.57;;
33453;SDS011;39400;49.744;7.012;2023-03-01T13:57:39;26.40;;;17.23;;
33453;SDS011;39400;49.744;7.012;2023-03-01T14:00:07;39.97;;;20.75;;
33453;SDS011;39400;49.744;7.012;2023-03-01T14:02:59;21.77;;;14.10;;
33453;SDS011;39400;49.744;7.012;2023-03-01T14:08:50;26.02;;;15.45;;
33453;SDS011;39400;49.744;7.012;2023-03-01T14:17:10;21.95;;;12.57;;
33453;SDS011;39400;49.744;7.012;2023-03-01T14:19:39;22.00;;;13.63;;
33453;SDS011;39400;49.744;7.012;2023-03-01T14:24:38;24.58;;;14.80;;
33453;SDS011;39400;49.744;7.012;2023-03-01T14:27:10;23.38;;;14.65;;
33453;SDS011;39400;49.744;7.012;2023-03-01T14:29:38;20.92;;;14.63;;
33453;SDS011;39400;49.744;7.012;2023-03-01T14:32:21;20.65;;;14.75;;
33453;SDS011;39400;49.744;7.012;2023-03-01T14:34:49;20.83;;;13.15;;
33453;SDS011;39400;49.744;7.012;2023-03-01T14:39:58;20.50;;;14.48;;
33453;SDS011;39400;49.744;7.012;2023-03-01T14:42:27;18.75;;;13.95;;
33453;SDS011;39400;49.744;7.012;2023-03-01T14:44:56;19.77;;;13.82;;
33453;SDS011;39400;49.744;7.012;2023-03-01T14:47:32;18.05;;;13.05;;
33453;SDS011;39400;49.744;7.012;2023-03-01T14:52:55;15.38;;;11.10;;
33453;SDS011;39400;49.744;7.012;2023-03-01T14:55:28;21.95;;;13.45;;
33453;SDS011;39400;49.744;7.012;2023-03-01T14:57:57;18.02;;;12.55;;
33453;SDS011;39400;49.744;7.012;2023-03-01T15:00:24;14.05;;;9.45;;
33453;SDS011;39400;49.744;7.012;2023-03-01T15:02:52;18.45;;;12.40;;
33453;SDS011;39400;49.744;7.012;2023-03-01T15:05:23;18.45;;;12.57;;
33453;SDS011;39400;49.744;7.012;2023-03-01T15:07:52;17.90;;;11.18;;
33453;SDS011;39400;49.744;7.012;2023-03-01T15:12:46;19.92;;;13.65;;
33453;SDS011;39400;49.744;7.012;2023-03-01T15:17:51;15.40;;;11.10;;
33453;SDS011;39400;49.744;7.012;2023-03-01T15:20:19;20.05;;;12.35;;
33453;SDS011;39400;49.744;7.012;2023-03-01T15:22:45;14.77;;;9.35;;
33453;SDS011;39400;49.744;7.012;2023-03-01T15:25:15;14.43;;;9.63;;
33453;SDS011;39400;49.744;7.012;2023-03-01T15:27:45;18.25;;;11.70;;
33453;SDS011;39400;49.744;7.012;2023-03-01T15:30:18;14.48;;;10.18;;
33453;SDS011;39400;49.744;7.012;2023-03-01T15:33:15;13.60;;;9.30;;
33453;SDS011;39400;49.744;7.012;2023-03-01T15:35:48;16.77;;;10.80;;
33453;SDS011;39400;49.744;7.012;2023-03-01T15:40:58;13.40;;;9.05;;
33453;SDS011;39400;49.744;7.012;2023-03-01T15:43:36;11.38;;;7.78;;
33453;SDS011;39400;49.744;7.012;2023-03-01T15:46:03;12.98;;;8.35;;
33453;SDS011;39400;49.744;7.012;2023-03-01T15:48:29;11.57;;;7.70;;
33453;SDS011;39400;49.744;7.012;2023-03-01T15:50:55;11.57;;;8.15;;
33453;SDS011;39400;49.744;7.012;2023-03-01T15:53:22;12.82;;;8.82;;
33453;SDS011;39400;49.744;7.012;2023-03-01T15:55:48;14.57;;;7.82;;
33453;SDS011;39400;49.744;7.012;2023-03-01T15:58:15;16.08;;;9.40;;
33453;SDS011;39400;49.744;7.012;2023-03-01T16:00:43;12.25;;;7.10;;
33453;SDS011;39400;49.744;7.012;2023-03-01T16:03:10;12.50;;;8.18;;
33453;SDS011;39400;49.744;7.012;2023-03-01T16:05:36;13.32;;;8.55;;
33453;SDS011;39400;49.744;7.012;2023-03-01T16:08:01;17.30;;;8.05;;
33453;SDS011;39400;49.744;7.012;2023-03-01T16:10:28;11.73;;;8.25;;
33453;SDS011;39400;49.744;7.012;2023-03-01T16:12:54;11.75;;;6.93;;
33453;SDS011;39400;49.744;7.012;2023-03-01T16:17:53;9.45;;;6.47;;
33453;SDS011;39400;49.744;7.012;2023-03-01T16:20:22;12.63;;;6.35;;
33453;SDS011;39400;49.744;7.012;2023-03-01T16:22:47;14.48;;;7.32;;
33453;SDS011;39400;49.744;7.012;2023-03-01T16:25:14;11.00;;;6.50;;
33453;SDS011;39400;49.744;7.012;2023-03-01T16:27:44;11.60;;;6.65;;
33453;SDS011;39400;49.744;7.012;2023-03-01T16:30:11;11.40;;;6.25;;
33453;SDS011;39400;49.744;7.012;2023-03-01T16:32:41;9.60;;;5.90;;
33453;SDS011;39400;49.744;7.012;2023-03-01T16:35:08;12.02;;;7.00;;
33453;SDS011;39400;49.744;7.012;2023-03-01T16:37:35;12.30;;;6.38;;
33453;SDS011;39400;49.744;7.012;2023-03-01T16:40:01;14.20;;;6.40;;